createdAt,value
2023-04-09T00:00:14.562Z,12.45
2023-04-09T00:02:41.339Z,11.57
2023-04-09T00:05:08.509Z,13.52
2023-04-09T00:07:34.983Z,11.88
2023-04-09T00:10:01.487Z,13.13
2023-04-09T00:12:34.766Z,11.45
2023-04-09T00:15:01.231Z,14.48
2023-04-09T00:17:27.923Z,14.57
2023-04-09T00:19:56.464Z,15.25
2023-04-09T00:22:23.326Z,15.10
2023-04-09T00:24:49.807Z,15.65
2023-04-09T00:27:18.223Z,15.48
2023-04-09T00:29:44.773Z,14.93
2023-04-09T00:32:11.239Z,18.08
2023-04-09T00:34:44.245Z,15.38
2023-04-09T00:37:10.812Z,14.95
2023-04-09T00:39:37.298Z,12.75
2023-04-09T00:42:04.149Z,14.82
2023-04-09T00:44:30.797Z,13.90
2023-04-09T00:46:59.188Z,12.65
2023-04-09T00:49:26.755Z,12.32
2023-04-09T00:51:53.895Z,12.48
2023-04-09T00:54:20.597Z,11.32
2023-04-09T00:56:47.940Z,9.70
2023-04-09T00:59:18.327Z,9.65
2023-04-09T01:01:44.882Z,9.70
2023-04-09T01:04:11.676Z,10.32
2023-04-09T01:06:51.616Z,9.00
2023-04-09T01:09:30.608Z,9.38
2023-04-09T01:12:09.454Z,8.80
2023-04-09T01:14:56.757Z,8.40
2023-04-09T01:17:50.230Z,8.90
2023-04-09T01:20:49.950Z,8.73
2023-04-09T01:23:43.239Z,7.97
2023-04-09T01:26:37.424Z,8.18
2023-04-09T01:29:07.005Z,8.40
2023-04-09T01:31:39.228Z,9.32
2023-04-09T01:34:08.815Z,10.98
2023-04-09T01:36:36.781Z,11.05
2023-04-09T01:39:10.680Z,11.40
2023-04-09T01:41:38.083Z,11.63
2023-04-09T01:44:05.906Z,13.95
2023-04-09T01:46:34.106Z,14.98
2023-04-09T01:49:01.688Z,18.13
2023-04-09T01:51:31.718Z,16.90
2023-04-09T01:53:59.205Z,18.67
2023-04-09T01:56:25.872Z,15.88
2023-04-09T01:58:52.825Z,14.63
2023-04-09T02:01:36.415Z,17.90
2023-04-09T02:04:05.259Z,17.88
2023-04-09T02:06:42.245Z,17.17
2023-04-09T02:09:09.836Z,16.77
2023-04-09T02:11:42.295Z,14.80
2023-04-09T02:14:11.473Z,15.90
2023-04-09T02:16:39.393Z,13.38
2023-04-09T02:19:06.022Z,12.00
2023-04-09T02:21:34.513Z,12.70
2023-04-09T02:24:00.982Z,10.77
2023-04-09T02:26:27.719Z,16.52
2023-04-09T02:28:56.421Z,14.95
2023-04-09T02:31:25.318Z,13.18
2023-04-09T02:33:52.801Z,11.68
2023-04-09T02:36:19.417Z,12.13
2023-04-09T02:38:46.244Z,11.77
2023-04-09T02:41:12.767Z,11.45
2023-04-09T02:43:41.142Z,10.95
2023-04-09T02:46:07.871Z,10.52
2023-04-09T02:48:34.357Z,10.93
2023-04-09T02:51:01.583Z,11.30
2023-04-09T02:53:28.121Z,10.30
2023-04-09T02:55:54.642Z,10.15
2023-04-09T02:58:21.217Z,10.10
2023-04-09T03:00:50.075Z,10.85
2023-04-09T03:03:16.794Z,11.20
2023-04-09T03:05:43.684Z,10.93
2023-04-09T03:08:10.141Z,9.88
2023-04-09T03:10:36.635Z,9.90
2023-04-09T03:13:03.298Z,9.95
2023-04-09T03:15:29.764Z,10.48
2023-04-09T03:17:58.243Z,10.38
2023-04-09T03:20:26.603Z,10.77
2023-04-09T03:22:53.120Z,9.55
2023-04-09T03:25:20.843Z,9.13
2023-04-09T03:27:56.043Z,10.40
2023-04-09T03:30:22.586Z,9.70
2023-04-09T03:32:49.087Z,11.10
2023-04-09T03:35:17.458Z,11.70
2023-04-09T03:37:43.896Z,12.68
2023-04-09T03:40:11.272Z,12.60
2023-04-09T03:42:37.900Z,13.75
2023-04-09T03:45:05.437Z,15.68
2023-04-09T03:47:33.139Z,14.68
2023-04-09T03:50:06.193Z,15.95
2023-04-09T03:52:32.679Z,17.13
2023-04-09T03:54:59.114Z,17.75
2023-04-09T03:57:25.755Z,18.17
2023-04-09T03:59:52.540Z,17.67
2023-04-09T04:02:19.218Z,20.67
2023-04-09T04:04:47.629Z,19.00
2023-04-09T04:07:14.154Z,20.02
2023-04-09T04:09:40.616Z,19.83
2023-04-09T04:12:09.173Z,20.35
2023-04-09T04:14:35.784Z,18.45
2023-04-09T04:17:02.302Z,18.40
2023-04-09T04:19:30.673Z,20.38
2023-04-09T04:21:57.452Z,17.85
2023-04-09T04:24:24.348Z,17.05
2023-04-09T04:26:51.096Z,17.67
2023-04-09T04:29:18.035Z,15.27
2023-04-09T04:31:44.784Z,14.15
2023-04-09T04:34:13.479Z,14.38
2023-04-09T04:36:39.948Z,12.25
2023-04-09T04:39:06.427Z,12.90
2023-04-09T04:41:33.167Z,10.93
2023-04-09T04:43:59.978Z,10.65
2023-04-09T04:46:26.465Z,11.13
2023-04-09T04:48:53.445Z,10.05
2023-04-09T04:51:20.107Z,9.80
2023-04-09T04:53:48.904Z,11.40
2023-04-09T04:56:16.170Z,10.05
2023-04-09T04:58:43.609Z,9.88
2023-04-09T05:01:10.126Z,9.60
2023-04-09T05:03:43.412Z,9.77
2023-04-09T05:06:09.893Z,9.40
2023-04-09T05:08:36.375Z,9.30
2023-04-09T05:11:03.150Z,9.60
2023-04-09T05:13:29.706Z,9.30
2023-04-09T05:15:58.397Z,11.45
2023-04-09T05:18:24.975Z,9.75
2023-04-09T05:20:51.531Z,8.90
2023-04-09T05:23:18.083Z,9.48
2023-04-09T05:25:45.064Z,9.63
2023-04-09T05:28:11.643Z,9.25
2023-04-09T05:30:38.258Z,9.07
2023-04-09T05:33:04.890Z,8.05
2023-04-09T05:35:31.385Z,8.35
2023-04-09T05:38:02.502Z,7.05
2023-04-09T05:40:29.347Z,8.40
2023-04-09T05:42:55.841Z,9.00
2023-04-09T05:45:22.330Z,9.70
2023-04-09T05:47:49.050Z,9.80
2023-04-09T05:50:15.945Z,8.95
2023-04-09T05:52:42.431Z,8.73
2023-04-09T05:55:11.898Z,8.50
2023-04-09T05:57:38.701Z,7.78
2023-04-09T06:00:06.087Z,8.65
2023-04-09T06:02:34.386Z,7.97
2023-04-09T06:05:00.948Z,8.02
2023-04-09T06:07:27.477Z,7.97
2023-04-09T06:09:58.291Z,7.40
2023-04-09T06:12:24.788Z,10.13
2023-04-09T06:14:51.302Z,12.60
2023-04-09T06:17:17.795Z,13.05
2023-04-09T06:19:44.258Z,11.68
2023-04-09T06:22:14.992Z,13.05
2023-04-09T06:24:50.077Z,13.60
2023-04-09T06:27:22.102Z,14.93
2023-04-09T06:29:48.763Z,13.52
2023-04-09T06:32:15.399Z,13.07
2023-04-09T06:34:42.210Z,13.02
2023-04-09T06:37:08.800Z,12.70
2023-04-09T06:39:38.719Z,13.18
2023-04-09T06:42:06.908Z,14.82
2023-04-09T06:44:34.668Z,13.30
2023-04-09T06:47:03.055Z,12.98
2023-04-09T06:49:29.527Z,13.23
2023-04-09T06:51:56.235Z,13.63
2023-04-09T06:54:27.271Z,14.13
2023-04-09T06:56:53.742Z,15.15
2023-04-09T06:59:20.372Z,14.20
2023-04-09T07:01:50.729Z,14.43
2023-04-09T07:04:18.680Z,14.10
2023-04-09T07:06:45.483Z,14.65
2023-04-09T07:12:11.388Z,15.30
2023-04-09T07:14:39.566Z,15.88
2023-04-09T07:17:06.232Z,14.52
2023-04-09T07:19:34.415Z,14.70
2023-04-09T07:22:00.909Z,15.20
2023-04-09T07:24:27.414Z,12.55
2023-04-09T07:26:54.146Z,13.38
2023-04-09T07:29:22.397Z,13.57
2023-04-09T07:31:48.941Z,13.82
2023-04-09T07:34:17.303Z,11.55
2023-04-09T07:36:43.985Z,11.50
2023-04-09T07:39:10.609Z,13.65
2023-04-09T07:41:49.031Z,13.30
2023-04-09T07:44:18.659Z,13.18
2023-04-09T07:46:45.289Z,12.70
2023-04-09T07:49:12.049Z,13.13
2023-04-09T07:51:38.547Z,11.95
2023-04-09T07:54:05.840Z,11.88
2023-04-09T07:56:32.455Z,12.20
2023-04-09T07:58:59.195Z,12.02
2023-04-09T08:01:26.579Z,12.02
2023-04-09T08:03:53.285Z,12.05
2023-04-09T08:06:20.298Z,11.32
2023-04-09T08:08:46.973Z,11.27
2023-04-09T08:11:13.853Z,11.38
2023-04-09T08:13:40.623Z,7.90
2023-04-09T08:16:07.223Z,11.43
2023-04-09T08:18:41.948Z,10.30
2023-04-09T08:21:12.325Z,9.68
2023-04-09T08:23:39.110Z,10.30
2023-04-09T08:26:08.283Z,8.20
2023-04-09T08:28:34.775Z,7.65
2023-04-09T08:31:01.268Z,9.18
2023-04-09T08:33:29.577Z,9.77
2023-04-09T08:35:56.519Z,9.93
2023-04-09T08:38:22.992Z,9.43
2023-04-09T08:40:49.706Z,10.10
2023-04-09T08:43:16.610Z,9.38
2023-04-09T08:45:43.110Z,8.90
2023-04-09T08:48:15.232Z,9.32
2023-04-09T08:50:41.787Z,8.82
2023-04-09T08:53:09.645Z,8.57
2023-04-09T08:55:37.450Z,8.13
2023-04-09T08:58:13.589Z,8.15
2023-04-09T09:00:48.277Z,8.93
2023-04-09T09:03:14.953Z,7.88
2023-04-09T09:05:46.141Z,8.52
2023-04-09T09:08:27.755Z,8.05
2023-04-09T09:10:54.298Z,9.68
2023-04-09T09:13:26.393Z,8.02
2023-04-09T09:15:58.536Z,8.55
2023-04-09T09:18:43.322Z,7.25
2023-04-09T09:21:19.583Z,8.02
2023-04-09T09:23:48.428Z,7.22
2023-04-09T09:26:23.313Z,7.20
2023-04-09T09:28:54.146Z,6.90
2023-04-09T09:31:22.665Z,6.75
2023-04-09T09:33:52.455Z,6.55
2023-04-09T09:36:39.043Z,6.10
2023-04-09T09:39:10.250Z,6.20
2023-04-09T09:41:44.817Z,5.97
2023-04-09T09:44:15.320Z,5.05
2023-04-09T09:46:42.717Z,5.50
2023-04-09T09:49:09.881Z,5.47
2023-04-09T09:51:41.342Z,4.95
2023-04-09T09:54:13.083Z,5.68
2023-04-09T09:56:44.704Z,5.65
2023-04-09T09:59:20.000Z,4.90
2023-04-09T10:01:48.704Z,4.38
2023-04-09T10:04:20.127Z,4.55
2023-04-09T10:06:53.442Z,4.68
2023-04-09T10:09:23.544Z,4.45
2023-04-09T10:11:50.201Z,3.92
2023-04-09T10:14:18.601Z,4.90
2023-04-09T10:16:46.634Z,4.20
2023-04-09T10:19:15.301Z,4.60
2023-04-09T10:22:07.902Z,4.75
2023-04-09T10:24:35.697Z,4.20
2023-04-09T10:27:15.912Z,5.60
2023-04-09T10:32:37.141Z,5.45
2023-04-09T10:35:04.436Z,4.53
2023-04-09T10:37:42.420Z,5.13
2023-04-09T10:40:20.563Z,4.95
2023-04-09T10:42:53.399Z,4.20
2023-04-09T10:45:22.473Z,4.80
2023-04-09T10:47:53.772Z,4.60
2023-04-09T10:50:33.523Z,3.70
2023-04-09T10:53:00.952Z,3.40
2023-04-09T10:55:33.082Z,2.50
2023-04-09T10:58:03.240Z,3.35
2023-04-09T11:00:30.116Z,4.07
2023-04-09T11:03:02.940Z,3.85
2023-04-09T11:05:40.362Z,3.08
2023-04-09T11:08:12.218Z,3.47
2023-04-09T11:10:48.216Z,3.63
2023-04-09T11:13:17.904Z,3.40
2023-04-09T11:15:45.527Z,4.22
2023-04-09T11:18:25.049Z,3.97
2023-04-09T11:20:59.568Z,3.80
2023-04-09T11:23:27.106Z,3.90
2023-04-09T11:25:54.597Z,3.55
2023-04-09T11:28:21.228Z,4.07
2023-04-09T11:30:49.702Z,3.42
2023-04-09T11:33:18.256Z,3.50
2023-04-09T11:35:46.485Z,3.92
2023-04-09T11:38:14.928Z,3.22
2023-04-09T11:40:49.518Z,3.47
2023-04-09T11:43:23.901Z,3.13
2023-04-09T11:45:50.493Z,3.20
2023-04-09T11:48:21.885Z,2.85
2023-04-09T11:50:52.638Z,2.88
2023-04-09T11:53:23.134Z,3.15
2023-04-09T11:55:51.708Z,3.30
2023-04-09T11:58:18.843Z,3.45
2023-04-09T12:00:45.866Z,3.22
2023-04-09T12:03:12.664Z,3.63
2023-04-09T12:05:42.865Z,2.60
2023-04-09T12:08:12.139Z,3.30
2023-04-09T12:10:38.888Z,3.38
2023-04-09T12:13:13.930Z,2.90
2023-04-09T12:15:45.531Z,3.70
2023-04-09T12:18:13.406Z,3.30
2023-04-09T12:20:45.747Z,3.40
2023-04-09T12:23:13.325Z,3.15
2023-04-09T12:25:42.962Z,3.53
2023-04-09T12:28:13.851Z,3.13
2023-04-09T12:30:40.897Z,3.45
2023-04-09T12:33:10.291Z,3.50
2023-04-09T12:35:38.500Z,3.10
2023-04-09T12:38:05.294Z,3.20
2023-04-09T12:40:31.936Z,3.22
2023-04-09T12:43:03.157Z,3.30
2023-04-09T12:45:30.922Z,3.47
2023-04-09T12:47:58.151Z,3.13
2023-04-09T12:50:27.445Z,4.10
2023-04-09T12:52:53.931Z,3.30
2023-04-09T12:55:20.625Z,3.50
2023-04-09T12:57:50.567Z,3.10
2023-04-09T13:00:17.254Z,3.65
2023-04-09T13:02:43.964Z,3.30
2023-04-09T13:05:10.820Z,3.00
2023-04-09T13:07:40.892Z,3.65
2023-04-09T13:10:09.162Z,3.38
2023-04-09T13:12:37.424Z,3.00
2023-04-09T13:15:04.307Z,3.13
2023-04-09T13:17:30.896Z,3.15
2023-04-09T13:20:02.023Z,3.13
2023-04-09T13:22:28.558Z,3.90
2023-04-09T13:24:55.083Z,3.47
2023-04-09T13:27:22.316Z,3.75
2023-04-09T13:29:48.801Z,3.92
2023-04-09T13:32:18.333Z,4.18
2023-04-09T13:34:46.639Z,3.17
2023-04-09T13:37:13.155Z,3.75
2023-04-09T13:39:39.731Z,4.07
2023-04-09T13:42:14.135Z,3.63
2023-04-09T13:44:45.196Z,3.10
2023-04-09T13:47:19.121Z,3.40
2023-04-09T13:49:45.888Z,4.28
2023-04-09T13:52:12.854Z,3.63
2023-04-09T13:54:39.406Z,3.70
2023-04-09T13:57:05.965Z,4.20
2023-04-09T13:59:32.714Z,3.70
2023-04-09T14:01:59.696Z,3.67
2023-04-09T14:04:26.320Z,3.40
2023-04-09T14:06:52.932Z,3.70
2023-04-09T14:09:21.208Z,3.70
2023-04-09T14:11:49.785Z,4.40
2023-04-09T14:14:16.683Z,3.90
2023-04-09T14:16:43.322Z,4.10
2023-04-09T14:19:10.499Z,3.80
2023-04-09T14:21:37.197Z,3.45
2023-04-09T14:24:04.017Z,3.85
2023-04-09T14:26:30.614Z,4.18
2023-04-09T14:28:57.399Z,4.32
2023-04-09T14:31:31.799Z,3.67
2023-04-09T14:33:58.325Z,3.80
2023-04-09T14:36:24.817Z,3.40
2023-04-09T14:38:51.738Z,4.80
2023-04-09T14:41:18.823Z,4.93
2023-04-09T14:43:45.590Z,4.53
2023-04-09T14:46:12.302Z,4.53
2023-04-09T14:48:42.228Z,4.90
2023-04-09T14:51:11.902Z,4.25
2023-04-09T14:53:40.241Z,4.63
2023-04-09T14:56:07.320Z,4.18
2023-04-09T14:58:33.860Z,4.00
2023-04-09T15:01:02.270Z,3.97
2023-04-09T15:03:28.985Z,3.58
2023-04-09T15:05:55.895Z,4.00
2023-04-09T15:08:26.715Z,4.60
2023-04-09T15:10:53.226Z,4.72
2023-04-09T15:13:19.748Z,4.30
2023-04-09T15:15:48.243Z,4.43
2023-04-09T15:18:14.799Z,4.53
2023-04-09T15:20:43.472Z,3.95
2023-04-09T15:23:12.591Z,3.90
2023-04-09T15:25:39.622Z,4.20
2023-04-09T15:28:06.758Z,4.00
2023-04-09T15:30:35.541Z,3.88
2023-04-09T15:33:08.103Z,3.88
2023-04-09T15:35:35.256Z,4.32
2023-04-09T15:38:03.746Z,4.38
2023-04-09T15:40:31.168Z,3.58
2023-04-09T15:42:57.765Z,3.40
2023-04-09T15:45:24.493Z,3.33
2023-04-09T15:47:51.015Z,3.28
2023-04-09T15:50:17.561Z,3.33
2023-04-09T15:52:45.878Z,3.03
2023-04-09T15:55:12.469Z,3.95
2023-04-09T15:57:38.964Z,3.15
2023-04-09T16:00:08.340Z,3.40
2023-04-09T16:05:27.425Z,2.88
2023-04-09T16:07:58.284Z,3.13
2023-04-09T16:10:26.395Z,3.20
2023-04-09T16:12:54.723Z,3.63
2023-04-09T16:15:21.754Z,3.38
2023-04-09T16:17:48.281Z,3.03
2023-04-09T16:20:23.436Z,3.10
2023-04-09T16:22:49.898Z,2.88
2023-04-09T16:25:16.433Z,3.53
2023-04-09T16:27:42.970Z,3.40
2023-04-09T16:30:09.910Z,2.85
2023-04-09T16:32:36.409Z,3.42
2023-04-09T16:35:04.843Z,2.90
2023-04-09T16:37:31.384Z,3.30
2023-04-09T16:39:58.988Z,3.42
2023-04-09T16:42:34.453Z,3.13
2023-04-09T16:45:04.604Z,2.67
2023-04-09T16:47:33.393Z,2.70
2023-04-09T16:50:00.428Z,2.83
2023-04-09T16:52:31.167Z,3.20
2023-04-09T16:54:57.649Z,2.78
2023-04-09T16:57:30.551Z,3.67
2023-04-09T16:59:57.964Z,3.78
2023-04-09T17:02:24.858Z,3.40
2023-04-09T17:04:53.459Z,2.58
2023-04-09T17:07:20.221Z,2.80
2023-04-09T17:09:46.730Z,3.40
2023-04-09T17:12:13.701Z,3.42
2023-04-09T17:14:41.939Z,3.03
2023-04-09T17:17:08.996Z,2.97
2023-04-09T17:19:42.973Z,2.90
2023-04-09T17:22:10.731Z,3.30
2023-04-09T17:24:37.287Z,3.10
2023-04-09T17:27:07.547Z,3.50
2023-04-09T17:29:34.461Z,2.70
2023-04-09T17:32:04.514Z,2.95
2023-04-09T17:34:31.554Z,3.10
2023-04-09T17:36:59.965Z,2.50
2023-04-09T17:39:29.050Z,2.70
2023-04-09T17:41:58.274Z,2.55
2023-04-09T17:44:27.760Z,2.33
2023-04-09T17:46:54.395Z,2.55
2023-04-09T17:49:22.555Z,2.70
2023-04-09T17:51:49.114Z,2.50
2023-04-09T17:54:15.657Z,2.30
2023-04-09T17:56:42.232Z,2.40
2023-04-09T17:59:08.722Z,2.40
2023-04-09T18:01:35.342Z,2.25
2023-04-09T18:04:10.036Z,2.50
2023-04-09T18:06:40.244Z,2.40
2023-04-09T18:09:07.640Z,2.28
2023-04-09T18:11:36.286Z,2.50
2023-04-09T18:14:07.815Z,2.28
2023-04-09T18:16:40.097Z,2.10
2023-04-09T18:19:07.644Z,2.10
2023-04-09T18:21:37.781Z,1.80
2023-04-09T18:24:06.473Z,2.10
2023-04-09T18:26:33.921Z,2.10
2023-04-09T18:29:01.424Z,2.33
2023-04-09T18:31:28.355Z,2.00
2023-04-09T18:33:57.289Z,2.22
2023-04-09T18:36:24.196Z,2.30
2023-04-09T18:38:52.867Z,1.80
2023-04-09T18:41:26.988Z,2.00
2023-04-09T18:43:54.026Z,2.13
2023-04-09T18:46:20.758Z,2.25
2023-04-09T18:48:47.306Z,2.35
2023-04-09T18:51:14.778Z,2.60
2023-04-09T18:53:42.163Z,2.42
2023-04-09T18:56:08.877Z,2.42
2023-04-09T18:58:40.709Z,2.65
2023-04-09T19:01:11.825Z,2.45
2023-04-09T19:03:39.719Z,2.53
2023-04-09T19:06:24.745Z,2.63
2023-04-09T19:08:57.198Z,2.55
2023-04-09T19:11:33.447Z,2.05
2023-04-09T19:14:00.012Z,2.28
2023-04-09T19:16:26.515Z,2.28
2023-04-09T19:18:53.379Z,2.40
2023-04-09T19:21:19.999Z,2.35
2023-04-09T19:23:46.989Z,2.45
2023-04-09T19:26:20.287Z,2.60
2023-04-09T19:28:46.916Z,2.45
2023-04-09T19:31:14.684Z,2.20
2023-04-09T19:33:41.313Z,2.03
2023-04-09T19:36:08.310Z,2.10
2023-04-09T19:38:34.972Z,2.70
2023-04-09T19:41:07.730Z,2.35
2023-04-09T19:43:34.420Z,2.90
2023-04-09T19:46:05.905Z,2.85
2023-04-09T19:48:32.531Z,2.67
2023-04-09T19:50:59.190Z,3.20
2023-04-09T19:53:26.158Z,2.88
2023-04-09T19:55:54.402Z,2.30
2023-04-09T19:58:20.994Z,2.70
2023-04-09T20:00:47.552Z,2.70
2023-04-09T20:03:14.398Z,2.72
2023-04-09T20:05:42.732Z,2.30
2023-04-09T20:08:13.515Z,2.50
2023-04-09T20:10:44.874Z,2.28
2023-04-09T20:13:11.579Z,2.30
2023-04-09T20:15:38.142Z,2.78
2023-04-09T20:18:09.114Z,2.33
2023-04-09T20:20:35.761Z,2.50
2023-04-09T20:23:03.365Z,2.05
2023-04-09T20:25:36.477Z,2.65
2023-04-09T20:28:03.767Z,2.25
2023-04-09T20:30:32.601Z,2.38
2023-04-09T20:32:59.307Z,2.88
2023-04-09T20:35:26.036Z,2.35
2023-04-09T20:37:54.346Z,2.58
2023-04-09T20:40:21.816Z,2.50
2023-04-09T20:42:48.745Z,2.65
2023-04-09T20:45:15.848Z,2.70
2023-04-09T20:47:44.133Z,2.92
2023-04-09T20:50:11.098Z,2.92
2023-04-09T20:52:38.386Z,2.90
2023-04-09T20:55:07.608Z,2.75
2023-04-09T20:57:34.398Z,2.25
2023-04-09T21:00:00.963Z,2.80
2023-04-09T21:02:29.471Z,3.08
2023-04-09T21:04:59.929Z,2.50
2023-04-09T21:07:28.106Z,2.20
2023-04-09T21:10:02.404Z,2.70
2023-04-09T21:12:34.468Z,2.72
2023-04-09T21:15:01.538Z,2.20
2023-04-09T21:17:34.660Z,2.80
2023-04-09T21:20:01.187Z,2.38
2023-04-09T21:22:27.734Z,2.45
2023-04-09T21:24:56.105Z,3.10
2023-04-09T21:27:23.063Z,2.70
2023-04-09T21:29:49.906Z,2.70
2023-04-09T21:32:17.712Z,2.90
2023-04-09T21:34:46.041Z,2.60
2023-04-09T21:37:12.563Z,2.45
2023-04-09T21:39:39.190Z,2.08
2023-04-09T21:42:08.816Z,2.30
2023-04-09T21:44:35.616Z,2.60
2023-04-09T21:47:11.823Z,2.53
2023-04-09T21:49:40.467Z,2.47
2023-04-09T21:52:14.533Z,3.28
2023-04-09T21:54:42.546Z,3.03
2023-04-09T21:57:17.186Z,3.13
2023-04-09T21:59:43.792Z,3.00
2023-04-09T22:02:10.787Z,2.63
2023-04-09T22:04:39.362Z,3.20
2023-04-09T22:07:06.423Z,2.90
2023-04-09T22:09:32.929Z,2.70
2023-04-09T22:11:59.835Z,3.00
2023-04-09T22:14:29.457Z,2.60
2023-04-09T22:17:03.199Z,2.85
2023-04-09T22:19:32.113Z,2.80
2023-04-09T22:21:58.742Z,3.20
2023-04-09T22:24:30.279Z,2.80
2023-04-09T22:26:58.999Z,2.80
2023-04-09T22:29:28.540Z,2.53
2023-04-09T22:31:55.940Z,2.60
2023-04-09T22:34:22.615Z,2.75
2023-04-09T22:36:49.676Z,2.58
2023-04-09T22:39:16.627Z,2.50
2023-04-09T22:41:46.531Z,2.90
2023-04-09T22:44:13.064Z,2.50
2023-04-09T22:46:39.677Z,2.58
2023-04-09T22:49:06.589Z,3.47
2023-04-09T22:51:36.244Z,3.20
2023-04-09T22:54:07.649Z,2.45
2023-04-09T22:56:34.587Z,3.42
2023-04-09T22:59:01.091Z,3.40
2023-04-09T23:01:29.445Z,3.92
2023-04-09T23:03:56.320Z,3.20
2023-04-09T23:06:25.479Z,3.58
2023-04-09T23:08:52.267Z,3.95
2023-04-09T23:11:19.000Z,4.22
2023-04-09T23:13:45.786Z,3.95
2023-04-09T23:16:21.528Z,3.60
2023-04-09T23:18:49.933Z,3.45
2023-04-09T23:21:16.733Z,4.60
2023-04-09T23:23:50.491Z,4.40
2023-04-09T23:26:18.838Z,4.00
2023-04-09T23:28:45.331Z,4.22
2023-04-09T23:31:18.603Z,3.60
2023-04-09T23:33:45.136Z,3.47
2023-04-09T23:36:11.699Z,3.05
2023-04-09T23:38:40.630Z,3.17
2023-04-09T23:41:09.103Z,3.80
2023-04-09T23:43:35.660Z,4.40
2023-04-09T23:46:02.354Z,4.20
2023-04-09T23:48:28.833Z,3.58
2023-04-09T23:50:55.352Z,3.30
2023-04-09T23:53:26.472Z,4.15
2023-04-09T23:55:53.103Z,3.70
2023-04-09T23:58:21.259Z,4.10
